Time;durP1;ratioP1;P1;durP2;ratioP2;P2;SDS_P1;SDS_P2;PMS_P1;PMS_P2;Temp;Humidity;BMP_temperature;BMP_pressure;BME280_temperature;BME280_humidity;BME280_pressure;Samples;Min_cycle;Max_cycle;Signal;HPM_P1;HPM_P2
2023/12/11 00:01:22;;;;;;;1999.90;999.90;;;9.80;99.90;;;;;;5048671;28;20492;-79
2023/12/11 00:03:49;;;;;;;1999.90;999.90;;;9.80;99.90;;;;;;5047560;28;20434;-78
2023/12/11 00:06:16;;;;;;;1999.90;999.90;;;9.70;99.90;;;;;;5056836;28;20834;-77
2023/12/11 00:08:42;;;;;;;1999.90;999.90;;;9.70;99.90;;;;;;5053203;28;20405;-78
2023/12/11 00:11:12;;;;;;;1999.90;999.90;;;9.70;99.90;;;;;;5057474;28;20478;-77
2023/12/11 00:13:39;;;;;;;1999.90;999.90;;;9.60;99.90;;;;;;5056800;28;20417;-78
2023/12/11 00:16:06;;;;;;;1999.90;999.90;;;9.70;99.90;;;;;;5054031;28;20953;-76
2023/12/11 00:18:33;;;;;;;1999.90;999.90;;;9.70;99.90;;;;;;5051014;28;20435;-78
2023/12/11 00:21:01;;;;;;;1999.90;999.90;;;9.60;99.90;;;;;;5053576;28;20434;-77
2023/12/11 00:23:27;;;;;;;1999.90;999.90;;;9.70;99.90;;;;;;5056474;28;20413;-77
2023/12/11 00:25:54;;;;;;;1999.90;999.90;;;9.70;99.90;;;;;;5055903;28;20504;-77
2023/12/11 00:28:22;;;;;;;1999.90;999.90;;;9.70;99.90;;;;;;5056684;28;20425;-78
2023/12/11 00:30:49;;;;;;;1999.90;999.90;;;9.70;99.90;;;;;;5054211;28;20422;-74
2023/12/11 00:33:15;;;;;;;1999.90;999.90;;;9.70;99.90;;;;;;5056218;28;20895;-78
2023/12/11 00:35:43;;;;;;;1999.90;999.90;;;9.80;99.90;;;;;;5056357;28;20417;-75
2023/12/11 00:38:10;;;;;;;1999.90;999.90;;;9.80;99.90;;;;;;5055727;28;20465;-76
2023/12/11 00:40:36;;;;;;;1999.90;999.90;;;9.80;99.90;;;;;;5061153;28;20440;-77
2023/12/11 00:43:03;;;;;;;1999.90;999.90;;;9.80;99.90;;;;;;5059464;28;20478;-76
2023/12/11 00:45:31;;;;;;;1999.90;999.90;;;9.80;99.90;;;;;;5053204;28;20438;-77
2023/12/11 00:47:58;;;;;;;1999.90;999.90;;;9.80;99.90;;;;;;5056463;28;20417;-78
2023/12/11 00:50:24;;;;;;;1999.90;999.90;;;9.80;99.90;;;;;;5059557;28;20435;-77
2023/12/11 00:52:51;;;;;;;1999.90;999.90;;;9.80;99.90;;;;;;5062677;28;20409;-76
2023/12/11 00:55:18;;;;;;;1999.90;999.90;;;9.80;99.90;;;;;;5058803;28;20983;-75
2023/12/11 00:57:44;;;;;;;1999.90;999.90;;;9.80;99.90;;;;;;5057732;28;20808;-79
2023/12/11 01:00:12;;;;;;;1999.90;999.90;;;9.80;99.90;;;;;;5055030;28;20490;-76
2023/12/11 01:02:41;;;;;;;1999.90;999.90;;;9.80;99.90;;;;;;5057856;28;20437;-77
2023/12/11 01:05:08;;;;;;;1999.90;999.90;;;9.90;99.90;;;;;;5057220;28;20490;-78
2023/12/11 01:07:35;;;;;;;1999.90;999.90;;;9.90;99.90;;;;;;5055038;28;20514;-77
2023/12/11 01:10:03;;;;;;;1999.90;999.90;;;9.90;99.90;;;;;;5055554;28;20467;-77
2023/12/11 01:12:29;;;;;;;1999.90;999.90;;;10.00;99.90;;;;;;5059900;28;20460;-76
2023/12/11 01:14:55;;;;;;;1999.90;999.90;;;10.00;99.90;;;;;;5058962;28;20507;-76
2023/12/11 01:17:22;;;;;;;1999.90;999.90;;;10.00;99.90;;;;;;5055065;28;20500;-77
2023/12/11 01:19:50;;;;;;;1999.90;999.90;;;9.90;99.90;;;;;;5058978;28;20993;-77
2023/12/11 01:22:16;;;;;;;1999.90;999.90;;;10.00;99.90;;;;;;5059103;28;20421;-76
2023/12/11 01:24:43;;;;;;;1999.90;999.90;;;10.00;99.90;;;;;;5054764;28;21097;-74
2023/12/11 01:27:10;;;;;;;1999.90;999.90;;;10.00;99.90;;;;;;5054432;28;20437;-77
2023/12/11 01:29:36;;;;;;;1999.90;999.90;;;10.00;99.90;;;;;;5055863;28;20466;-75
2023/12/11 01:32:04;;;;;;;1999.90;999.90;;;9.90;99.90;;;;;;5051032;28;20429;-76
2023/12/11 01:34:30;;;;;;;1999.90;999.90;;;9.90;99.90;;;;;;5051990;28;20516;-78
2023/12/11 01:36:59;;;;;;;1999.90;999.90;;;10.00;99.90;;;;;;5054232;28;20409;-77
2023/12/11 01:39:25;;;;;;;1999.90;999.90;;;10.00;99.90;;;;;;5056120;28;20513;-74
2023/12/11 01:41:52;;;;;;;1999.90;999.90;;;10.00;99.90;;;;;;5055581;28;21073;-76
2023/12/11 01:44:19;;;;;;;1999.90;999.90;;;10.10;99.90;;;;;;5050630;28;20441;-76
2023/12/11 01:46:46;;;;;;;1999.90;999.90;;;10.10;99.90;;;;;;5054190;28;20953;-77
2023/12/11 01:49:14;;;;;;;1999.90;999.90;;;10.10;99.90;;;;;;5053702;28;20424;-79
2023/12/11 01:51:41;;;;;;;1999.90;999.90;;;10.00;99.90;;;;;;5053437;28;20416;-77
2023/12/11 01:54:09;;;;;;;1999.90;999.90;;;10.10;99.90;;;;;;5056577;28;20421;-77
2023/12/11 01:56:36;;;;;;;1999.90;999.90;;;10.10;99.90;;;;;;5054724;28;20463;-76
2023/12/11 01:59:06;;;;;;;1999.90;999.90;;;10.10;99.90;;;;;;5053084;28;20915;-79
2023/12/11 02:01:36;;;;;;;1999.90;999.90;;;10.10;99.90;;;;;;5055253;28;20471;-79
2023/12/11 02:04:03;;;;;;;1999.90;999.90;;;10.10;99.90;;;;;;5055148;28;20413;-76
2023/12/11 02:06:29;;;;;;;1999.90;999.90;;;10.10;99.90;;;;;;5052736;28;20409;-75
2023/12/11 02:08:56;;;;;;;1999.90;999.90;;;10.10;99.90;;;;;;5049390;28;20410;-76
2023/12/11 02:11:26;;;;;;;1999.90;999.90;;;10.10;99.90;;;;;;5051340;28;20826;-76
2023/12/11 02:13:52;;;;;;;1999.90;999.90;;;10.20;99.90;;;;;;5051492;28;20456;-79
2023/12/11 02:16:19;;;;;;;1999.90;999.90;;;10.20;99.90;;;;;;5056216;28;20413;-78
2023/12/11 02:18:46;;;;;;;1999.90;999.90;;;10.20;99.90;;;;;;5054967;28;20429;-76
2023/12/11 02:21:13;;;;;;;1999.90;999.90;;;10.10;99.90;;;;;;5053111;28;20493;-80
2023/12/11 02:23:47;;;;;;;1999.90;999.90;;;10.20;99.90;;;;;;5053284;28;20823;-77
2023/12/11 02:26:17;;;;;;;1999.90;999.90;;;10.10;99.90;;;;;;5050781;28;20433;-76
2023/12/11 02:28:44;;;;;;;1999.90;999.90;;;10.10;99.90;;;;;;5053249;28;20405;-77
2023/12/11 02:31:11;;;;;;;1999.90;999.90;;;10.10;99.90;;;;;;5053564;28;20409;-78
2023/12/11 02:33:38;;;;;;;1999.90;999.90;;;10.00;99.90;;;;;;5053296;28;20418;-78
2023/12/11 02:36:05;;;;;;;1999.90;999.90;;;10.10;99.90;;;;;;5053138;28;20416;-77
2023/12/11 02:38:32;;;;;;;1999.90;999.90;;;10.10;99.90;;;;;;5056090;28;20429;-77
2023/12/11 02:40:59;;;;;;;1999.90;999.90;;;10.00;99.90;;;;;;5058077;28;20471;-78
2023/12/11 02:43:27;;;;;;;1999.90;999.90;;;9.90;99.90;;;;;;5059104;28;20420;-76
2023/12/11 02:45:54;;;;;;;1999.90;999.90;;;9.90;99.90;;;;;;5057754;28;20424;-77
2023/12/11 02:48:20;;;;;;;1999.90;999.90;;;9.90;99.90;;;;;;5056510;28;20409;-75
2023/12/11 02:50:47;;;;;;;1999.90;999.90;;;9.90;99.90;;;;;;5051905;28;20526;-77
2023/12/11 02:53:14;;;;;;;1999.90;999.90;;;9.90;99.90;;;;;;5053756;28;20434;-76
2023/12/11 02:55:41;;;;;;;1999.90;999.90;;;9.90;99.90;;;;;;5056677;28;20433;-77
2023/12/11 02:58:07;;;;;;;1999.90;999.90;;;9.90;99.90;;;;;;5056213;28;20413;-78
2023/12/11 03:00:36;;;;;;;1999.90;999.90;;;10.00;99.90;;;;;;5055908;28;20516;-76
2023/12/11 03:03:03;;;;;;;1999.90;999.90;;;10.30;99.90;;;;;;5057943;28;20416;-80
2023/12/11 03:05:30;;;;;;;1999.90;999.90;;;9.80;99.90;;;;;;5054934;28;20455;-80
2023/12/11 03:07:56;;;;;;;1999.90;999.90;;;9.90;99.90;;;;;;5056105;28;20815;-77
2023/12/11 03:10:24;;;;;;;1999.90;999.90;;;9.90;99.90;;;;;;5054275;28;20533;-75
2023/12/11 03:12:51;;;;;;;1999.90;999.90;;;9.80;99.90;;;;;;5054392;28;20417;-77
2023/12/11 03:15:17;;;;;;;1999.90;999.90;;;9.90;99.90;;;;;;5058502;28;20435;-78
2023/12/11 03:17:46;;;;;;;1999.90;999.90;;;9.90;99.90;;;;;;5056620;28;20417;-76
2023/12/11 03:20:13;;;;;;;1999.90;999.90;;;9.90;99.90;;;;;;5053245;28;20923;-76
2023/12/11 03:22:40;;;;;;;1999.90;999.90;;;9.90;99.90;;;;;;5052906;28;20409;-77
2023/12/11 03:25:07;;;;;;;1999.90;999.90;;;9.90;99.90;;;;;;5051974;28;20436;-76
2023/12/11 03:27:34;;;;;;;1999.90;999.90;;;9.90;99.90;;;;;;5053555;28;20416;-79
2023/12/11 03:30:01;;;;;;;1999.90;999.90;;;10.00;99.90;;;;;;5054000;28;20814;-76
2023/12/11 03:32:28;;;;;;;1999.90;999.90;;;10.00;99.90;;;;;;5051966;28;20826;-77
2023/12/11 03:34:56;;;;;;;1999.90;999.90;;;10.00;99.90;;;;;;5052642;28;20417;-77
2023/12/11 03:37:22;;;;;;;1999.90;999.90;;;10.00;99.90;;;;;;5052476;28;20428;-79
2023/12/11 03:39:49;;;;;;;1999.90;999.90;;;10.10;99.90;;;;;;5048896;28;20501;-78
2023/12/11 03:42:16;;;;;;;1999.90;999.90;;;10.00;99.90;;;;;;5051503;28;20437;-76
2023/12/11 03:44:43;;;;;;;1999.90;999.90;;;10.00;99.90;;;;;;5052139;28;20479;-76
2023/12/11 03:47:09;;;;;;;1999.90;999.90;;;10.00;99.90;;;;;;5050307;28;20409;-79
2023/12/11 03:49:36;;;;;;;1999.90;999.90;;;10.00;99.90;;;;;;5053850;28;20406;-78
2023/12/11 03:52:05;;;;;;;1999.90;999.90;;;10.00;99.90;;;;;;5052262;28;20474;-77
2023/12/11 03:54:31;;;;;;;1999.90;999.90;;;10.00;99.90;;;;;;5052499;28;20491;-76
2023/12/11 03:56:58;;;;;;;1999.90;999.90;;;9.90;99.90;;;;;;5053564;28;20439;-78
2023/12/11 03:59:25;;;;;;;1999.90;999.90;;;9.80;99.90;;;;;;5052140;28;20433;-76
2023/12/11 04:01:51;;;;;;;1999.90;999.90;;;9.90;99.90;;;;;;5053205;28;20435;-78
2023/12/11 04:04:18;;;;;;;1999.90;999.90;;;9.80;99.90;;;;;;5054020;28;20413;-75
2023/12/11 04:06:45;;;;;;;1999.90;999.90;;;9.80;99.90;;;;;;5051981;28;20417;-77
2023/12/11 04:09:13;;;;;;;1999.90;999.90;;;9.70;99.90;;;;;;5051726;28;20418;-77
2023/12/11 04:11:39;;;;;;;1999.90;999.90;;;9.70;99.90;;;;;;5050691;28;20862;-76
2023/12/11 04:14:06;;;;;;;1999.90;999.90;;;9.70;99.90;;;;;;5054812;28;20420;-76
2023/12/11 04:16:33;;;;;;;1999.90;999.90;;;9.70;99.90;;;;;;5055176;28;20429;-79
2023/12/11 04:18:59;;;;;;;1999.90;999.90;;;9.70;99.90;;;;;;5050523;28;20405;-76
2023/12/11 04:21:27;;;;;;;1999.90;999.90;;;9.70;99.90;;;;;;5058132;28;20413;-77
2023/12/11 04:23:55;;;;;;;1999.90;999.90;;;9.70;99.90;;;;;;5058609;28;20408;-80
2023/12/11 04:26:23;;;;;;;1999.90;999.90;;;9.70;99.90;;;;;;5059054;28;20417;-78
2023/12/11 04:28:49;;;;;;;1999.90;999.90;;;9.60;99.90;;;;;;5052128;28;20432;-76
2023/12/11 04:31:16;;;;;;;1999.90;999.90;;;9.60;99.90;;;;;;5052541;28;20430;-74
2023/12/11 04:33:43;;;;;;;1999.90;999.90;;;9.60;99.90;;;;;;5060002;28;20449;-77
2023/12/11 04:36:10;;;;;;;1999.90;999.90;;;9.60;99.90;;;;;;5055504;28;20423;-76
2023/12/11 04:38:36;;;;;;;1999.90;999.90;;;9.60;99.90;;;;;;5056922;28;20409;-77
2023/12/11 04:41:03;;;;;;;1999.90;999.90;;;9.60;99.90;;;;;;5055438;28;20425;-77
2023/12/11 04:43:33;;;;;;;1999.90;999.90;;;9.70;99.90;;;;;;5056153;28;20562;-78
2023/12/11 04:46:00;;;;;;;1999.90;999.90;;;9.60;99.90;;;;;;5054974;28;20495;-77
2023/12/11 04:48:26;;;;;;;1999.90;999.90;;;9.70;99.90;;;;;;5057010;28;21073;-77
2023/12/11 04:50:53;;;;;;;1999.90;999.90;;;9.70;99.90;;;;;;5057930;28;20405;-79
2023/12/11 04:53:20;;;;;;;1999.90;999.90;;;9.70;99.90;;;;;;5057678;28;20414;-77
2023/12/11 04:55:46;;;;;;;1999.90;999.90;;;9.60;99.90;;;;;;5055244;28;20416;-76
2023/12/11 04:58:13;;;;;;;1999.90;999.90;;;9.60;99.90;;;;;;5055933;28;20960;-79
2023/12/11 05:00:41;;;;;;;1999.90;999.90;;;9.50;99.90;;;;;;5055595;28;20846;-76
2023/12/11 05:03:08;;;;;;;1999.90;999.90;;;9.50;99.90;;;;;;5053474;28;20413;-77
2023/12/11 05:05:35;;;;;;;1999.90;999.90;;;9.40;99.90;;;;;;5056484;28;20409;-76
2023/12/11 05:08:03;;;;;;;1999.90;999.90;;;9.40;99.90;;;;;;5054683;28;20421;-78
2023/12/11 05:10:29;;;;;;;1999.90;999.90;;;9.40;99.90;;;;;;5055225;28;20860;-77
2023/12/11 05:12:56;;;;;;;1999.90;999.90;;;9.30;99.90;;;;;;5051397;28;20437;-79
2023/12/11 05:15:22;;;;;;;1999.90;999.90;;;9.30;99.90;;;;;;5053128;28;20421;-76
2023/12/11 05:17:50;;;;;;;1999.90;999.90;;;9.30;99.90;;;;;;5054266;28;20899;-76
2023/12/11 05:20:18;;;;;;;1999.90;999.90;;;9.20;99.90;;;;;;5056516;28;20483;-77
2023/12/11 05:22:45;;;;;;;1999.90;999.90;;;9.20;99.90;;;;;;5060907;28;20460;-76
2023/12/11 05:25:12;;;;;;;1999.90;999.90;;;9.20;99.90;;;;;;5056129;28;20453;-78
2023/12/11 05:27:39;;;;;;;1999.90;999.90;;;9.20;99.90;;;;;;5053945;28;20849;-78
2023/12/11 05:30:07;;;;;;;1999.90;999.90;;;9.30;99.90;;;;;;5059334;28;20413;-78
2023/12/11 05:32:34;;;;;;;1999.90;999.90;;;9.30;99.90;;;;;;5058271;28;20413;-77
2023/12/11 05:35:03;;;;;;;1999.90;999.90;;;9.40;99.90;;;;;;5052965;28;20842;-77
2023/12/11 05:37:30;;;;;;;1999.90;999.90;;;9.40;99.90;;;;;;5057591;28;20413;-78
2023/12/11 05:39:56;;;;;;;1999.90;999.90;;;9.40;99.90;;;;;;5059667;28;20425;-77
2023/12/11 05:42:23;;;;;;;1999.90;999.90;;;9.40;99.90;;;;;;5052802;28;20466;-77
2023/12/11 05:44:50;;;;;;;1999.90;999.90;;;9.50;99.90;;;;;;5053642;28;20418;-80
2023/12/11 05:47:16;;;;;;;1999.90;999.90;;;9.50;99.90;;;;;;5058347;28;20421;-76
2023/12/11 05:49:43;;;;;;;1999.90;999.90;;;9.50;99.90;;;;;;5045700;28;22290;-75
2023/12/11 05:52:11;;;;;;;1999.90;999.90;;;9.50;99.90;;;;;;5055290;28;20440;-77
2023/12/11 05:54:38;;;;;;;1999.90;999.90;;;9.50;99.90;;;;;;5057789;28;20417;-71
2023/12/11 05:57:05;;;;;;;1999.90;999.90;;;9.50;99.90;;;;;;5058590;28;20467;-76
2023/12/11 05:59:32;;;;;;;1999.90;999.90;;;9.50;99.90;;;;;;5060654;28;20433;-77
2023/12/11 06:01:58;;;;;;;1999.90;999.90;;;9.50;99.90;;;;;;5058123;28;20500;-79
2023/12/11 06:04:25;;;;;;;1999.90;999.90;;;9.50;99.90;;;;;;5056001;28;20434;-76
2023/12/11 06:06:52;;;;;;;1999.90;999.90;;;9.40;99.90;;;;;;5055195;28;20413;-77
2023/12/11 06:09:20;;;;;;;1999.90;999.90;;;9.50;99.90;;;;;;5054001;28;20887;-75
2023/12/11 06:11:46;;;;;;;1999.90;999.90;;;9.50;99.90;;;;;;5053832;28;20414;-76
2023/12/11 06:14:13;;;;;;;1999.90;999.90;;;9.50;99.90;;;;;;5053981;28;20413;-77
2023/12/11 06:16:41;;;;;;;1999.90;999.90;;;9.50;99.90;;;;;;5053677;28;20444;-80
2023/12/11 06:19:07;;;;;;;1999.90;999.90;;;9.50;99.90;;;;;;5053587;28;20417;-76
2023/12/11 06:21:34;;;;;;;1999.90;999.90;;;9.50;99.90;;;;;;5053740;28;20425;-77
2023/12/11 06:24:01;;;;;;;1999.90;999.90;;;9.60;99.90;;;;;;5056331;28;20405;-73
2023/12/11 06:26:30;;;;;;;1999.90;999.90;;;9.70;99.90;;;;;;5056475;28;20414;-77
2023/12/11 06:28:59;;;;;;;1999.90;999.90;;;9.70;99.90;;;;;;5053977;28;20496;-77
2023/12/11 06:31:26;;;;;;;1999.90;999.90;;;9.60;99.90;;;;;;5053465;28;20459;-76
2023/12/11 06:33:53;;;;;;;1999.90;999.90;;;9.60;99.90;;;;;;5056923;28;20420;-77
2023/12/11 06:36:21;;;;;;;1999.90;999.90;;;9.70;99.90;;;;;;5057184;28;20413;-77
2023/12/11 06:38:49;;;;;;;1999.90;999.90;;;9.70;99.90;;;;;;5056787;28;20413;-75
2023/12/11 06:41:16;;;;;;;1999.90;999.90;;;9.70;99.90;;;;;;5053607;28;20523;-77
2023/12/11 06:43:47;;;;;;;1999.90;999.90;;;9.70;99.90;;;;;;5053526;28;20417;-77
2023/12/11 06:46:14;;;;;;;1999.90;999.90;;;9.70;99.90;;;;;;5049116;28;20440;-70
2023/12/11 06:48:41;;;;;;;1999.90;999.90;;;9.80;99.90;;;;;;5053143;28;20417;-75
2023/12/11 06:51:07;;;;;;;1999.90;999.90;;;9.70;99.90;;;;;;5053396;28;20455;-76
2023/12/11 06:53:34;;;;;;;1999.90;999.90;;;9.80;99.90;;;;;;5051538;28;21094;-72
2023/12/11 06:56:01;;;;;;;1999.90;999.90;;;9.80;99.90;;;;;;5044918;28;20463;-77
2023/12/11 06:58:27;;;;;;;1999.90;999.90;;;9.90;99.90;;;;;;5055606;28;20417;-77
2023/12/11 07:00:55;;;;;;;1999.90;999.90;;;9.80;99.90;;;;;;5052632;28;20536;-75
2023/12/11 07:03:22;;;;;;;1999.90;999.90;;;9.80;99.90;;;;;;5053251;28;20447;-77
2023/12/11 07:05:49;;;;;;;1999.90;999.90;;;9.70;99.90;;;;;;5051518;28;20417;-75
2023/12/11 07:08:16;;;;;;;1999.90;999.90;;;9.70;99.90;;;;;;5052523;28;20428;-76
2023/12/11 07:10:42;;;;;;;1999.90;999.90;;;9.70;99.90;;;;;;5050339;28;20429;-76
2023/12/11 07:13:09;;;;;;;1999.90;999.90;;;9.70;99.90;;;;;;5052480;28;20413;-75
2023/12/11 07:15:36;;;;;;;1999.90;999.90;;;9.70;99.90;;;;;;5047915;28;20433;-76
2023/12/11 07:18:04;;;;;;;1999.90;999.90;;;9.60;99.90;;;;;;5052163;28;20417;-75
2023/12/11 07:20:33;;;;;;;1999.90;999.90;;;9.60;99.90;;;;;;5052458;28;20938;-78
2023/12/11 07:23:00;;;;;;;1999.90;999.90;;;9.70;99.90;;;;;;5055618;28;20417;-74
2023/12/11 07:25:26;;;;;;;1999.90;999.90;;;9.70;99.90;;;;;;5052252;28;20807;-76
2023/12/11 07:27:53;;;;;;;1999.90;999.90;;;9.80;99.90;;;;;;5053081;28;21078;-76
2023/12/11 07:30:20;;;;;;;1999.90;999.90;;;9.90;99.90;;;;;;5055516;28;20409;-73
2023/12/11 07:32:47;;;;;;;1999.90;999.90;;;10.00;99.90;;;;;;5055354;28;20444;-75
2023/12/11 07:35:15;;;;;;;1999.90;999.90;;;10.00;99.90;;;;;;5053224;28;20409;-75
2023/12/11 07:37:42;;;;;;;1999.90;999.90;;;10.10;99.90;;;;;;5049479;28;20409;-73
2023/12/11 07:40:10;;;;;;;1999.90;999.90;;;10.10;99.90;;;;;;5049751;28;20423;-75
2023/12/11 07:42:37;;;;;;;1999.90;999.90;;;10.00;99.90;;;;;;5046429;28;20413;-76
2023/12/11 07:45:05;;;;;;;1999.90;999.90;;;10.00;99.90;;;;;;5051661;28;20405;-76
2023/12/11 07:47:32;;;;;;;1999.90;999.90;;;9.90;99.90;;;;;;5050414;28;20919;-76
2023/12/11 07:49:58;;;;;;;1999.90;999.90;;;10.00;99.90;;;;;;5050808;28;20496;-76
2023/12/11 07:52:30;;;;;;;1999.90;999.90;;;9.90;99.90;;;;;;5056073;28;20924;-77
2023/12/11 07:54:56;;;;;;;1999.90;999.90;;;9.80;99.90;;;;;;5054720;28;20753;-73
2023/12/11 07:57:26;;;;;;;1999.90;999.90;;;9.70;99.90;;;;;;5053708;28;20417;-76
2023/12/11 07:59:52;;;;;;;1999.90;999.90;;;9.60;99.90;;;;;;5050845;28;20875;-76
2023/12/11 08:02:20;;;;;;;1999.90;999.90;;;9.60;99.90;;;;;;5051666;28;20795;-77
2023/12/11 08:04:46;;;;;;;1999.90;999.90;;;9.60;99.90;;;;;;5045570;28;20844;-76
2023/12/11 08:07:14;;;;;;;1999.90;999.90;;;9.50;99.90;;;;;;5047764;28;20980;-74
2023/12/11 08:09:42;;;;;;;1999.90;999.90;;;9.50;99.90;;;;;;5049409;28;20847;-75
2023/12/11 08:12:09;;;;;;;1999.90;999.90;;;9.50;99.90;;;;;;5049406;28;20409;-75
2023/12/11 08:14:36;;;;;;;1999.90;999.90;;;9.50;99.90;;;;;;5049233;28;20409;-74
2023/12/11 08:17:04;;;;;;;1999.90;999.90;;;9.50;99.90;;;;;;5049403;28;20414;-75
2023/12/11 08:19:32;;;;;;;1999.90;999.90;;;9.50;99.90;;;;;;5049620;28;20895;-73
2023/12/11 08:21:58;;;;;;;1999.90;999.90;;;9.60;99.90;;;;;;5041467;28;20522;-75
2023/12/11 08:24:25;;;;;;;1999.90;999.90;;;9.50;99.90;;;;;;5047179;28;20429;-75
2023/12/11 08:26:53;;;;;;;1999.90;999.90;;;9.50;99.90;;;;;;5049493;28;20488;-74
2023/12/11 08:29:22;;;;;;;1999.90;999.90;;;9.50;99.90;;;;;;5049682;28;20417;-76
2023/12/11 08:31:48;;;;;;;1999.90;999.90;;;9.60;99.90;;;;;;5049301;28;20417;-75
2023/12/11 08:34:15;;;;;;;1999.90;999.90;;;9.50;99.90;;;;;;5049802;28;20467;-76
2023/12/11 08:36:42;;;;;;;1999.90;999.90;;;9.60;99.90;;;;;;5045472;28;20436;-74
2023/12/11 08:39:10;;;;;;;1999.90;999.90;;;9.60;99.90;;;;;;5048412;28;20452;-74
2023/12/11 08:41:37;;;;;;;1999.90;999.90;;;9.60;99.90;;;;;;5051033;28;20540;-74
2023/12/11 08:44:05;;;;;;;1999.90;999.90;;;9.60;99.90;;;;;;5051847;28;20421;-76
2023/12/11 08:46:32;;;;;;;1999.90;999.90;;;9.60;99.90;;;;;;5051693;28;20593;-75
2023/12/11 08:48:59;;;;;;;1999.90;999.90;;;9.60;99.90;;;;;;5051595;28;20892;-75
2023/12/11 08:51:26;;;;;;;1999.90;999.90;;;9.60;99.90;;;;;;5048083;28;20428;-75
2023/12/11 08:53:53;;;;;;;1999.90;999.90;;;9.70;99.90;;;;;;5049347;28;20440;-75
2023/12/11 08:56:21;;;;;;;1999.90;999.90;;;9.80;99.90;;;;;;5049533;28;20441;-75
2023/12/11 08:58:47;;;;;;;1999.90;999.90;;;9.90;99.90;;;;;;5048712;28;20525;-74
2023/12/11 09:01:15;;;;;;;1999.90;999.90;;;10.00;99.90;;;;;;5052027;28;20512;-74
2023/12/11 09:03:44;;;;;;;1999.90;999.90;;;10.20;99.90;;;;;;5054206;28;20409;-76
2023/12/11 09:06:10;;;;;;;1999.90;999.90;;;10.20;99.90;;;;;;5054703;28;20440;-76
2023/12/11 09:08:37;;;;;;;1999.90;999.90;;;10.30;99.90;;;;;;5053955;28;20903;-75
2023/12/11 09:11:04;;;;;;;1999.90;999.90;;;10.40;99.90;;;;;;5054684;28;20826;-75
2023/12/11 09:13:31;;;;;;;1999.90;999.90;;;10.30;99.90;;;;;;5055282;28;20425;-77
2023/12/11 09:15:57;;;;;;;1999.90;999.90;;;10.30;99.90;;;;;;5054219;28;20981;-75
2023/12/11 09:18:25;;;;;;;1999.90;999.90;;;10.30;99.90;;;;;;5053364;28;20409;-75
2023/12/11 09:20:52;;;;;;;1999.90;999.90;;;10.50;99.90;;;;;;5053466;28;20838;-77
2023/12/11 09:23:19;;;;;;;1999.90;999.90;;;10.70;99.90;;;;;;5052802;28;20413;-75
2023/12/11 09:25:45;;;;;;;1999.90;999.90;;;10.70;99.90;;;;;;5052518;28;20926;-75
2023/12/11 09:28:12;;;;;;;1999.90;999.90;;;10.70;99.90;;;;;;5051989;28;20417;-75
2023/12/11 09:30:39;;;;;;;1999.90;999.90;;;10.70;99.90;;;;;;5050730;28;20429;-75
2023/12/11 09:33:05;;;;;;;1999.90;999.90;;;10.60;99.90;;;;;;5054339;28;20472;-77
2023/12/11 09:35:33;;;;;;;1999.90;999.90;;;10.60;99.90;;;;;;5052789;28;20418;-74
2023/12/11 09:38:01;;;;;;;1999.90;999.90;;;10.60;99.90;;;;;;5052842;28;20482;-77
2023/12/11 09:40:27;;;;;;;1999.90;999.90;;;10.50;99.90;;;;;;5053049;28;20922;-76
2023/12/11 09:42:54;;;;;;;1999.90;999.90;;;10.60;99.90;;;;;;5053858;28;20438;-76
2023/12/11 09:45:21;;;;;;;1999.90;999.90;;;10.50;99.90;;;;;;5056158;28;20463;-77
2023/12/11 09:47:51;;;;;;;1999.90;999.90;;;10.60;99.90;;;;;;5044123;28;20431;-77
2023/12/11 09:50:19;;;;;;;1999.90;999.90;;;10.70;99.90;;;;;;5051125;28;20479;-74
2023/12/11 09:52:49;;;;;;;1999.90;999.90;;;10.60;99.90;;;;;;5046834;28;20434;-75
2023/12/11 09:55:16;;;;;;;1999.90;999.90;;;10.60;99.90;;;;;;5048638;28;20415;-73
2023/12/11 09:57:46;;;;;;;1999.90;999.90;;;10.50;99.90;;;;;;5053469;28;20440;-74
2023/12/11 10:00:14;;;;;;;1999.90;999.90;;;10.50;99.90;;;;;;5047653;28;20420;-74
2023/12/11 10:02:42;;;;;;;1999.90;999.90;;;10.60;99.90;;;;;;5050806;28;20432;-74
2023/12/11 10:05:09;;;;;;;1999.90;999.90;;;10.60;99.90;;;;;;5051330;28;20417;-75
2023/12/11 10:07:37;;;;;;;1999.90;999.90;;;10.60;99.90;;;;;;5051173;28;20448;-73
2023/12/11 10:10:22;;;;;;;1999.90;999.90;;;10.60;99.90;;;;;;5048010;28;20460;-75
2023/12/11 10:12:49;;;;;;;1999.90;999.90;;;10.70;99.90;;;;;;5049923;28;20422;-75
2023/12/11 10:15:20;;;;;;;1999.90;999.90;;;10.70;99.90;;;;;;5051354;28;21072;-74
2023/12/11 10:17:47;;;;;;;1999.90;999.90;;;10.70;99.90;;;;;;5045898;28;20425;-75
2023/12/11 10:20:17;;;;;;;1999.90;999.90;;;10.70;99.90;;;;;;5044914;28;20417;-72
2023/12/11 10:22:44;;;;;;;1999.90;999.90;;;10.60;99.90;;;;;;5051366;28;20429;-75
2023/12/11 10:25:12;;;;;;;1999.90;999.90;;;10.60;99.90;;;;;;5051572;28;20413;-75
2023/12/11 10:27:40;;;;;;;1999.90;999.90;;;10.50;99.90;;;;;;5051104;28;20976;-76
2023/12/11 10:30:09;;;;;;;1999.90;999.90;;;10.40;99.90;;;;;;5050751;28;21016;-76
2023/12/11 10:32:36;;;;;;;1999.90;999.90;;;10.40;99.90;;;;;;5045557;28;20433;-74
2023/12/11 10:35:04;;;;;;;1999.90;999.90;;;10.50;99.90;;;;;;5051837;28;20487;-74
2023/12/11 10:37:34;;;;;;;1999.90;999.90;;;10.50;99.90;;;;;;5051508;28;20425;-75
2023/12/11 10:40:01;;;;;;;1999.90;999.90;;;10.50;99.90;;;;;;5050706;28;20519;-74
2023/12/11 10:42:28;;;;;;;1999.90;999.90;;;10.50;99.90;;;;;;5050876;28;20422;-74
2023/12/11 10:44:56;;;;;;;1999.90;999.90;;;10.60;99.90;;;;;;5050138;28;20438;-73
2023/12/11 10:47:24;;;;;;;1999.90;999.90;;;10.50;99.90;;;;;;5047281;28;20544;-74
2023/12/11 10:49:51;;;;;;;1999.90;999.90;;;10.60;99.90;;;;;;5050562;28;20417;-74
2023/12/11 10:52:18;;;;;;;1999.90;999.90;;;10.60;99.90;;;;;;5051387;28;20467;-76
2023/12/11 10:54:45;;;;;;;1999.90;999.90;;;10.60;99.90;;;;;;5050831;28;20424;-75
2023/12/11 10:57:14;;;;;;;1999.90;999.90;;;10.70;99.90;;;;;;5050985;28;20421;-72
2023/12/11 10:59:41;;;;;;;1999.90;999.90;;;10.80;99.90;;;;;;5049336;28;20440;-75
2023/12/11 11:02:13;;;;;;;1999.90;999.90;;;11.00;99.90;;;;;;5050154;28;20425;-75
2023/12/11 11:04:44;;;;;;;1999.90;999.90;;;11.10;99.90;;;;;;5051028;28;20417;-74
2023/12/11 11:07:18;;;;;;;1999.90;999.90;;;11.10;99.90;;;;;;5050603;28;20432;-75
2023/12/11 11:09:53;;;;;;;1999.90;999.90;;;11.10;99.90;;;;;;5050663;28;20417;-73
2023/12/11 11:12:34;;;;;;;1999.90;999.90;;;11.10;99.90;;;;;;5050623;28;20428;-75
2023/12/11 11:15:01;;;;;;;1999.90;999.90;;;10.90;99.90;;;;;;5052135;28;20444;-73
2023/12/11 11:17:57;;;;;;;1999.90;999.90;;;11.00;99.90;;;;;;5050836;28;20903;-74
2023/12/11 11:20:24;;;;;;;1999.90;999.90;;;11.00;99.90;;;;;;5039070;28;20919;-75
2023/12/11 11:22:50;;;;;;;1999.90;999.90;;;11.20;99.90;;;;;;5048798;28;20421;-76
2023/12/11 11:25:36;;;;;;;1999.90;999.90;;;11.50;99.90;;;;;;5051763;28;20420;-73
2023/12/11 11:28:03;;;;;;;1999.90;999.90;;;11.50;99.90;;;;;;5044284;28;20424;-73
2023/12/11 11:30:52;;;;;;;1999.90;999.90;;;11.90;99.90;;;;;;5050468;28;20780;-75
2023/12/11 11:33:21;;;;;;;1999.90;999.90;;;11.70;99.90;;;;;;5050636;28;20413;-75
2023/12/11 11:35:51;;;;;;;1999.90;999.90;;;11.80;99.90;;;;;;5046469;28;20921;-76
2023/12/11 11:38:19;;;;;;;1999.90;999.90;;;11.90;99.90;;;;;;5049960;28;20421;-75
2023/12/11 11:40:48;;;;;;;1999.90;999.90;;;12.00;99.90;;;;;;5043233;28;20933;-72
2023/12/11 11:43:15;;;;;;;1999.90;999.90;;;12.20;99.90;;;;;;5050339;28;20488;-74
2023/12/11 11:45:43;;;;;;;1999.90;999.90;;;12.30;99.90;;;;;;5045371;28;20482;-76
2023/12/11 11:48:09;;;;;;;1999.90;999.90;;;12.20;99.90;;;;;;5048800;28;20496;-75
2023/12/11 11:50:51;;;;;;;1999.90;999.90;;;12.10;99.90;;;;;;5049030;28;20437;-77
2023/12/11 11:53:20;;;;;;;1999.90;999.90;;;12.00;99.90;;;;;;5050228;28;20476;-76
2023/12/11 11:55:47;;;;;;;1999.90;999.90;;;12.00;99.90;;;;;;5049848;28;20470;-76
2023/12/11 11:58:15;;;;;;;1999.90;999.90;;;11.70;99.90;;;;;;5051018;28;20448;-76
2023/12/11 12:00:42;;;;;;;1999.90;999.90;;;11.60;99.90;;;;;;5049987;28;20417;-75
2023/12/11 12:03:09;;;;;;;1999.90;999.90;;;11.60;99.90;;;;;;5049651;28;20474;-75
2023/12/11 12:05:37;;;;;;;1999.90;999.90;;;11.60;99.90;;;;;;5047578;28;20433;-73